Lawton, Oklahoma
Current Conditions -  °F | °C
As of 3:24 AM on Friday 19 Dec 2014 (Local Time) from KFSI Reporting Station
Haze Haze  
Wind Chill:   Ceiling: 200
Heat Index:   Visibility: 2.5mi
Dew Point:   Wind: 9mph
Humidity: 100%   Direction: 20°NNE
Pressure: 30.15"   Gusts: NA
Location:  34.61°N, 98.39°W
Report Text: KFSI 190924Z AUTO 02008KT 2 1/2SM BR OVC002 05/05 A3015 RMK AO2 VIS 2 1/2V3
Loading
Personal Weather Stations






























Interactive Weather Map New forecast layout! Learn more

10-Day Weather Forecast

Advertisements
Track Severe Weather on mobile